sensor_id;sensor_type;location;lat;lon;timestamp;temperature;humidity
42479;DHT22;28110;47.080;9.476;2022-12-11T00:00:48;0.20;99.90
42479;DHT22;28110;47.080;9.476;2022-12-11T00:03:17;0.30;99.90
42479;DHT22;28110;47.080;9.476;2022-12-11T00:05:44;0.20;99.90
42479;DHT22;28110;47.080;9.476;2022-12-11T00:08:10;0.20;99.90
42479;DHT22;28110;47.080;9.476;2022-12-11T00:10:36;0.20;99.90
42479;DHT22;28110;47.080;9.476;2022-12-11T00:13:02;0.20;99.90
42479;DHT22;28110;47.080;9.476;2022-12-11T00:15:28;0.20;99.90
42479;DHT22;28110;47.080;9.476;2022-12-11T00:17:53;0.20;99.90
42479;DHT22;28110;47.080;9.476;2022-12-11T00:20:19;0.10;99.90
42479;DHT22;28110;47.080;9.476;2022-12-11T00:22:45;0.20;99.90
42479;DHT22;28110;47.080;9.476;2022-12-11T00:25:10;0.20;99.90
42479;DHT22;28110;47.080;9.476;2022-12-11T00:27:36;0.20;99.90
42479;DHT22;28110;47.080;9.476;2022-12-11T00:30:03;0.20;99.90
42479;DHT22;28110;47.080;9.476;2022-12-11T00:32:29;0.10;99.90
42479;DHT22;28110;47.080;9.476;2022-12-11T00:34:54;0.10;99.90
42479;DHT22;28110;47.080;9.476;2022-12-11T00:37:20;0.10;99.90
42479;DHT22;28110;47.080;9.476;2022-12-11T00:39:45;0.20;99.90
42479;DHT22;28110;47.080;9.476;2022-12-11T00:42:11;0.20;99.90
42479;DHT22;28110;47.080;9.476;2022-12-11T00:44:36;0.20;99.90
42479;DHT22;28110;47.080;9.476;2022-12-11T00:47:02;0.20;99.90
42479;DHT22;28110;47.080;9.476;2022-12-11T00:49:28;0.20;99.90
42479;DHT22;28110;47.080;9.476;2022-12-11T00:51:53;0.20;99.90
42479;DHT22;28110;47.080;9.476;2022-12-11T00:54:19;0.20;99.90
42479;DHT22;28110;47.080;9.476;2022-12-11T00:56:44;0.20;99.90
42479;DHT22;28110;47.080;9.476;2022-12-11T00:59:10;0.20;99.90
42479;DHT22;28110;47.080;9.476;2022-12-11T01:01:37;0.30;99.90
42479;DHT22;28110;47.080;9.476;2022-12-11T01:04:03;0.30;99.90
42479;DHT22;28110;47.080;9.476;2022-12-11T01:06:28;0.30;99.90
42479;DHT22;28110;47.080;9.476;2022-12-11T01:08:54;0.30;99.90
42479;DHT22;28110;47.080;9.476;2022-12-11T01:11:39;0.20;99.90
42479;DHT22;28110;47.080;9.476;2022-12-11T01:14:06;0.10;99.90
42479;DHT22;28110;47.080;9.476;2022-12-11T01:16:32;0.10;99.90
42479;DHT22;28110;47.080;9.476;2022-12-11T01:18:57;0.10;99.90
42479;DHT22;28110;47.080;9.476;2022-12-11T01:21:23;0.10;99.90
42479;DHT22;28110;47.080;9.476;2022-12-11T01:23:50;0.10;99.90
42479;DHT22;28110;47.080;9.476;2022-12-11T01:26:16;0.10;99.90
42479;DHT22;28110;47.080;9.476;2022-12-11T01:28:42;0.10;99.90
42479;DHT22;28110;47.080;9.476;2022-12-11T01:31:09;0.10;99.90
42479;DHT22;28110;47.080;9.476;2022-12-11T01:33:35;0.10;99.90
42479;DHT22;28110;47.080;9.476;2022-12-11T01:36:06;0.10;99.90
42479;DHT22;28110;47.080;9.476;2022-12-11T01:38:32;0.10;99.90
42479;DHT22;28110;47.080;9.476;2022-12-11T01:40:57;0.10;99.90
42479;DHT22;28110;47.080;9.476;2022-12-11T01:43:23;0.10;99.90
42479;DHT22;28110;47.080;9.476;2022-12-11T01:45:48;0.10;99.90
42479;DHT22;28110;47.080;9.476;2022-12-11T01:48:20;0.10;99.90
42479;DHT22;28110;47.080;9.476;2022-12-11T01:50:50;0.20;99.90
42479;DHT22;28110;47.080;9.476;2022-12-11T01:53:20;0.20;99.90
42479;DHT22;28110;47.080;9.476;2022-12-11T01:55:49;0.10;99.90
42479;DHT22;28110;47.080;9.476;2022-12-11T01:58:17;0.20;99.90
42479;DHT22;28110;47.080;9.476;2022-12-11T02:00:44;0.20;99.90
42479;DHT22;28110;47.080;9.476;2022-12-11T02:03:09;0.20;99.90
42479;DHT22;28110;47.080;9.476;2022-12-11T02:05:35;0.20;99.90
42479;DHT22;28110;47.080;9.476;2022-12-11T02:08:02;0.20;99.90
42479;DHT22;28110;47.080;9.476;2022-12-11T02:13:31;0.10;99.90
42479;DHT22;28110;47.080;9.476;2022-12-11T02:16:13;0.10;99.90
42479;DHT22;28110;47.080;9.476;2022-12-11T02:18:50;0.10;99.90
42479;DHT22;28110;47.080;9.476;2022-12-11T02:21:25;0.10;99.90
42479;DHT22;28110;47.080;9.476;2022-12-11T02:29:44;0.10;99.90
42479;DHT22;28110;47.080;9.476;2022-12-11T02:32:24;0.10;99.90
42479;DHT22;28110;47.080;9.476;2022-12-11T02:35:14;0.10;99.90
42479;DHT22;28110;47.080;9.476;2022-12-11T02:37:43;0.20;99.90
42479;DHT22;28110;47.080;9.476;2022-12-11T02:40:12;0.20;99.90
42479;DHT22;28110;47.080;9.476;2022-12-11T02:42:41;0.20;99.90
42479;DHT22;28110;47.080;9.476;2022-12-11T02:45:08;0.20;99.90
42479;DHT22;28110;47.080;9.476;2022-12-11T02:47:35;0.10;99.90
42479;DHT22;28110;47.080;9.476;2022-12-11T02:50:10;0.10;99.90
42479;DHT22;28110;47.080;9.476;2022-12-11T02:52:39;0.10;99.90
42479;DHT22;28110;47.080;9.476;2022-12-11T02:55:06;0.10;99.90
42479;DHT22;28110;47.080;9.476;2022-12-11T02:57:37;0.00;99.90
42479;DHT22;28110;47.080;9.476;2022-12-11T03:00:05;0.00;99.90
42479;DHT22;28110;47.080;9.476;2022-12-11T03:02:32;-0.10;99.90
42479;DHT22;28110;47.080;9.476;2022-12-11T03:04:58;-0.20;99.90
42479;DHT22;28110;47.080;9.476;2022-12-11T03:07:27;-0.30;99.90
42479;DHT22;28110;47.080;9.476;2022-12-11T03:09:54;-0.30;99.90
42479;DHT22;28110;47.080;9.476;2022-12-11T03:12:23;-0.20;99.90
42479;DHT22;28110;47.080;9.476;2022-12-11T03:14:49;-0.10;99.90
42479;DHT22;28110;47.080;9.476;2022-12-11T03:17:20;-0.20;99.90
42479;DHT22;28110;47.080;9.476;2022-12-11T03:19:59;-0.10;99.90
42479;DHT22;28110;47.080;9.476;2022-12-11T03:27:44;-0.10;99.90
42479;DHT22;28110;47.080;9.476;2022-12-11T03:30:20;-0.10;99.90
42479;DHT22;28110;47.080;9.476;2022-12-11T03:35:39;0.00;99.90
42479;DHT22;28110;47.080;9.476;2022-12-11T03:38:20;0.00;99.90
42479;DHT22;28110;47.080;9.476;2022-12-11T03:40:49;0.00;99.90
42479;DHT22;28110;47.080;9.476;2022-12-11T03:43:16;0.00;99.90
42479;DHT22;28110;47.080;9.476;2022-12-11T03:45:42;0.00;99.90
42479;DHT22;28110;47.080;9.476;2022-12-11T03:48:10;0.10;99.90
42479;DHT22;28110;47.080;9.476;2022-12-11T03:50:38;0.10;99.90
42479;DHT22;28110;47.080;9.476;2022-12-11T03:53:05;0.00;99.90
42479;DHT22;28110;47.080;9.476;2022-12-11T03:55:32;0.00;99.90
42479;DHT22;28110;47.080;9.476;2022-12-11T03:58:00;0.00;99.90
42479;DHT22;28110;47.080;9.476;2022-12-11T04:00:26;0.00;99.90
42479;DHT22;28110;47.080;9.476;2022-12-11T04:02:52;-0.10;99.90
42479;DHT22;28110;47.080;9.476;2022-12-11T04:05:39;-0.10;99.90
42479;DHT22;28110;47.080;9.476;2022-12-11T04:08:05;-0.10;99.90
42479;DHT22;28110;47.080;9.476;2022-12-11T04:10:30;-0.10;99.90
42479;DHT22;28110;47.080;9.476;2022-12-11T04:12:56;-0.10;99.90
42479;DHT22;28110;47.080;9.476;2022-12-11T04:15:21;-0.10;99.90
42479;DHT22;28110;47.080;9.476;2022-12-11T04:17:47;-0.10;99.90
42479;DHT22;28110;47.080;9.476;2022-12-11T04:20:31;-0.10;99.90
42479;DHT22;28110;47.080;9.476;2022-12-11T04:23:17;-0.10;99.90
42479;DHT22;28110;47.080;9.476;2022-12-11T04:26:16;-0.10;99.90
42479;DHT22;28110;47.080;9.476;2022-12-11T04:28:43;-0.10;99.90
42479;DHT22;28110;47.080;9.476;2022-12-11T04:31:13;-0.10;99.90
42479;DHT22;28110;47.080;9.476;2022-12-11T04:33:39;-0.20;99.90
42479;DHT22;28110;47.080;9.476;2022-12-11T04:36:06;-0.20;99.90
42479;DHT22;28110;47.080;9.476;2022-12-11T04:38:31;-0.20;99.90
42479;DHT22;28110;47.080;9.476;2022-12-11T04:41:08;-0.20;99.90
42479;DHT22;28110;47.080;9.476;2022-12-11T04:43:34;-0.20;99.90
42479;DHT22;28110;47.080;9.476;2022-12-11T04:46:23;-0.30;99.90
42479;DHT22;28110;47.080;9.476;2022-12-11T04:48:49;-0.30;99.90
42479;DHT22;28110;47.080;9.476;2022-12-11T04:51:15;-0.30;99.90
42479;DHT22;28110;47.080;9.476;2022-12-11T04:53:41;-0.30;99.90
42479;DHT22;28110;47.080;9.476;2022-12-11T04:56:10;-0.30;99.90
42479;DHT22;28110;47.080;9.476;2022-12-11T04:58:36;-0.40;99.90
42479;DHT22;28110;47.080;9.476;2022-12-11T05:01:15;-0.40;99.90
42479;DHT22;28110;47.080;9.476;2022-12-11T05:03:41;-0.40;99.90
42479;DHT22;28110;47.080;9.476;2022-12-11T05:06:08;-0.40;99.90
42479;DHT22;28110;47.080;9.476;2022-12-11T05:08:36;-0.40;99.90
42479;DHT22;28110;47.080;9.476;2022-12-11T05:11:04;-0.40;99.90
42479;DHT22;28110;47.080;9.476;2022-12-11T05:13:30;-0.50;99.90
42479;DHT22;28110;47.080;9.476;2022-12-11T05:15:57;-0.50;99.90
42479;DHT22;28110;47.080;9.476;2022-12-11T05:18:23;-0.50;99.90
42479;DHT22;28110;47.080;9.476;2022-12-11T05:23:21;-0.50;99.90
42479;DHT22;28110;47.080;9.476;2022-12-11T05:25:54;-0.50;99.90
42479;DHT22;28110;47.080;9.476;2022-12-11T05:28:21;-0.50;99.90
42479;DHT22;28110;47.080;9.476;2022-12-11T05:30:47;-0.50;99.90
42479;DHT22;28110;47.080;9.476;2022-12-11T05:33:12;-0.50;99.90
42479;DHT22;28110;47.080;9.476;2022-12-11T05:35:38;-0.50;99.90
42479;DHT22;28110;47.080;9.476;2022-12-11T05:38:04;-0.50;99.90
42479;DHT22;28110;47.080;9.476;2022-12-11T05:40:29;-0.50;99.90
42479;DHT22;28110;47.080;9.476;2022-12-11T05:42:55;-0.50;99.90
42479;DHT22;28110;47.080;9.476;2022-12-11T05:45:20;-0.50;99.90
42479;DHT22;28110;47.080;9.476;2022-12-11T05:47:46;-0.50;99.90
42479;DHT22;28110;47.080;9.476;2022-12-11T05:50:11;-0.50;99.90
42479;DHT22;28110;47.080;9.476;2022-12-11T05:52:37;-0.50;99.90
42479;DHT22;28110;47.080;9.476;2022-12-11T05:55:02;-0.40;99.90
42479;DHT22;28110;47.080;9.476;2022-12-11T05:57:28;-0.30;99.90
42479;DHT22;28110;47.080;9.476;2022-12-11T05:59:53;-0.30;99.90
42479;DHT22;28110;47.080;9.476;2022-12-11T06:02:19;-0.30;99.90
42479;DHT22;28110;47.080;9.476;2022-12-11T06:04:45;-0.20;99.90
42479;DHT22;28110;47.080;9.476;2022-12-11T06:07:10;-0.20;99.90
42479;DHT22;28110;47.080;9.476;2022-12-11T06:09:36;-0.10;99.90
42479;DHT22;28110;47.080;9.476;2022-12-11T06:12:01;-0.10;99.90
42479;DHT22;28110;47.080;9.476;2022-12-11T06:14:27;-0.20;99.90
42479;DHT22;28110;47.080;9.476;2022-12-11T06:16:52;-0.20;99.90
42479;DHT22;28110;47.080;9.476;2022-12-11T06:19:18;-0.20;99.90
42479;DHT22;28110;47.080;9.476;2022-12-11T06:21:44;-0.20;99.90
42479;DHT22;28110;47.080;9.476;2022-12-11T06:24:10;-0.20;99.90
42479;DHT22;28110;47.080;9.476;2022-12-11T06:26:36;-0.20;99.90
42479;DHT22;28110;47.080;9.476;2022-12-11T06:29:01;-0.20;99.90
42479;DHT22;28110;47.080;9.476;2022-12-11T06:31:27;-0.10;99.90
42479;DHT22;28110;47.080;9.476;2022-12-11T06:33:53;-0.10;99.90
42479;DHT22;28110;47.080;9.476;2022-12-11T06:36:20;-0.10;99.90
42479;DHT22;28110;47.080;9.476;2022-12-11T06:38:47;-0.20;99.90
42479;DHT22;28110;47.080;9.476;2022-12-11T06:41:12;-0.10;99.90
42479;DHT22;28110;47.080;9.476;2022-12-11T06:43:39;-0.10;99.90
42479;DHT22;28110;47.080;9.476;2022-12-11T06:46:07;-0.20;99.90
42479;DHT22;28110;47.080;9.476;2022-12-11T06:48:33;-0.20;99.90
42479;DHT22;28110;47.080;9.476;2022-12-11T06:50:59;-0.20;99.90
42479;DHT22;28110;47.080;9.476;2022-12-11T06:53:24;-0.30;99.90
42479;DHT22;28110;47.080;9.476;2022-12-11T06:55:50;-0.30;99.90
42479;DHT22;28110;47.080;9.476;2022-12-11T06:58:15;-0.30;99.90
42479;DHT22;28110;47.080;9.476;2022-12-11T07:00:41;-0.30;99.90
42479;DHT22;28110;47.080;9.476;2022-12-11T07:03:08;-0.40;99.90
42479;DHT22;28110;47.080;9.476;2022-12-11T07:05:34;-0.40;99.90
42479;DHT22;28110;47.080;9.476;2022-12-11T07:07:59;-0.40;99.90
42479;DHT22;28110;47.080;9.476;2022-12-11T07:10:25;-0.40;99.90
42479;DHT22;28110;47.080;9.476;2022-12-11T07:12:52;-0.40;99.90
42479;DHT22;28110;47.080;9.476;2022-12-11T07:15:18;-0.40;99.90
42479;DHT22;28110;47.080;9.476;2022-12-11T07:17:44;-0.40;99.90
42479;DHT22;28110;47.080;9.476;2022-12-11T07:20:10;-0.40;99.90
42479;DHT22;28110;47.080;9.476;2022-12-11T07:22:35;-0.50;99.90
42479;DHT22;28110;47.080;9.476;2022-12-11T07:25:01;-0.60;99.90
42479;DHT22;28110;47.080;9.476;2022-12-11T07:27:26;-0.50;99.90
42479;DHT22;28110;47.080;9.476;2022-12-11T07:29:52;-0.50;99.90
42479;DHT22;28110;47.080;9.476;2022-12-11T07:32:19;-0.50;99.90
42479;DHT22;28110;47.080;9.476;2022-12-11T07:34:46;-0.50;99.90
42479;DHT22;28110;47.080;9.476;2022-12-11T07:37:12;-0.50;99.90
42479;DHT22;28110;47.080;9.476;2022-12-11T07:39:38;-0.50;99.90
42479;DHT22;28110;47.080;9.476;2022-12-11T07:42:03;-0.50;99.90
42479;DHT22;28110;47.080;9.476;2022-12-11T07:44:29;-0.40;99.90
42479;DHT22;28110;47.080;9.476;2022-12-11T07:46:54;-0.40;99.90
42479;DHT22;28110;47.080;9.476;2022-12-11T07:49:20;-0.40;99.90
42479;DHT22;28110;47.080;9.476;2022-12-11T07:51:46;-0.40;99.90
42479;DHT22;28110;47.080;9.476;2022-12-11T07:54:13;-0.30;99.90
42479;DHT22;28110;47.080;9.476;2022-12-11T07:56:42;-0.40;99.90
42479;DHT22;28110;47.080;9.476;2022-12-11T07:59:08;-0.30;99.90
42479;DHT22;28110;47.080;9.476;2022-12-11T08:01:35;-0.30;99.90
42479;DHT22;28110;47.080;9.476;2022-12-11T08:04:02;-0.30;99.90
42479;DHT22;28110;47.080;9.476;2022-12-11T08:06:34;-0.30;99.90
42479;DHT22;28110;47.080;9.476;2022-12-11T08:09:01;-0.40;99.90
42479;DHT22;28110;47.080;9.476;2022-12-11T08:11:28;-0.50;99.90
42479;DHT22;28110;47.080;9.476;2022-12-11T08:13:54;-0.50;99.90
42479;DHT22;28110;47.080;9.476;2022-12-11T08:16:20;-0.60;99.90
42479;DHT22;28110;47.080;9.476;2022-12-11T08:18:46;-0.50;99.90
42479;DHT22;28110;47.080;9.476;2022-12-11T08:21:17;-0.50;99.90
42479;DHT22;28110;47.080;9.476;2022-12-11T08:23:43;-0.50;99.90
42479;DHT22;28110;47.080;9.476;2022-12-11T08:26:18;-0.50;99.90
42479;DHT22;28110;47.080;9.476;2022-12-11T08:28:44;-0.50;99.90
42479;DHT22;28110;47.080;9.476;2022-12-11T08:31:11;-0.50;99.90
42479;DHT22;28110;47.080;9.476;2022-12-11T08:33:37;-0.50;99.90
42479;DHT22;28110;47.080;9.476;2022-12-11T08:36:07;-0.40;99.90
42479;DHT22;28110;47.080;9.476;2022-12-11T08:38:33;-0.40;99.90
42479;DHT22;28110;47.080;9.476;2022-12-11T08:41:08;-0.40;99.90
42479;DHT22;28110;47.080;9.476;2022-12-11T08:43:34;-0.30;99.90
42479;DHT22;28110;47.080;9.476;2022-12-11T08:45:59;-0.30;99.90
42479;DHT22;28110;47.080;9.476;2022-12-11T08:48:25;-0.20;99.90
42479;DHT22;28110;47.080;9.476;2022-12-11T08:50:50;-0.20;99.90
42479;DHT22;28110;47.080;9.476;2022-12-11T08:53:16;-0.10;99.90
42479;DHT22;28110;47.080;9.476;2022-12-11T08:55:41;-0.10;99.90
42479;DHT22;28110;47.080;9.476;2022-12-11T08:58:07;-0.10;99.90
42479;DHT22;28110;47.080;9.476;2022-12-11T09:00:32;-0.10;99.90
42479;DHT22;28110;47.080;9.476;2022-12-11T09:02:58;-0.10;99.90
42479;DHT22;28110;47.080;9.476;2022-12-11T09:05:23;-0.20;99.90
42479;DHT22;28110;47.080;9.476;2022-12-11T09:07:49;-0.30;99.90
42479;DHT22;28110;47.080;9.476;2022-12-11T09:10:14;-0.30;99.90
42479;DHT22;28110;47.080;9.476;2022-12-11T09:12:40;-0.30;99.90
42479;DHT22;28110;47.080;9.476;2022-12-11T09:15:06;-0.40;99.90
42479;DHT22;28110;47.080;9.476;2022-12-11T09:17:33;-0.40;99.90
42479;DHT22;28110;47.080;9.476;2022-12-11T09:19:58;-0.40;99.90
42479;DHT22;28110;47.080;9.476;2022-12-11T09:22:24;-0.30;99.90
42479;DHT22;28110;47.080;9.476;2022-12-11T09:24:50;-0.30;99.90
42479;DHT22;28110;47.080;9.476;2022-12-11T09:27:15;-0.30;99.90
42479;DHT22;28110;47.080;9.476;2022-12-11T09:29:41;-0.30;99.90
42479;DHT22;28110;47.080;9.476;2022-12-11T09:32:06;-0.30;99.90
42479;DHT22;28110;47.080;9.476;2022-12-11T09:34:32;-0.30;99.90
42479;DHT22;28110;47.080;9.476;2022-12-11T09:36:57;-0.30;99.90
42479;DHT22;28110;47.080;9.476;2022-12-11T09:39:23;-0.20;99.90
42479;DHT22;28110;47.080;9.476;2022-12-11T09:42:03;-0.20;99.90
42479;DHT22;28110;47.080;9.476;2022-12-11T09:45:12;-0.10;99.90
42479;DHT22;28110;47.080;9.476;2022-12-11T09:47:47;-0.10;99.90
42479;DHT22;28110;47.080;9.476;2022-12-11T09:50:25;-0.10;99.90
42479;DHT22;28110;47.080;9.476;2022-12-11T10:06:47;-0.10;99.90
42479;DHT22;28110;47.080;9.476;2022-12-11T10:09:21;0.00;99.90
42479;DHT22;28110;47.080;9.476;2022-12-11T10:17:26;0.00;99.90
42479;DHT22;28110;47.080;9.476;2022-12-11T10:19:54;0.10;99.90
42479;DHT22;28110;47.080;9.476;2022-12-11T10:22:23;0.10;99.90
42479;DHT22;28110;47.080;9.476;2022-12-11T10:25:05;0.10;99.90
42479;DHT22;28110;47.080;9.476;2022-12-11T10:27:34;0.10;99.90
42479;DHT22;28110;47.080;9.476;2022-12-11T10:35:42;0.10;99.90
42479;DHT22;28110;47.080;9.476;2022-12-11T10:38:33;0.10;99.90
42479;DHT22;28110;47.080;9.476;2022-12-11T10:41:16;0.00;99.90
42479;DHT22;28110;47.080;9.476;2022-12-11T10:43:48;-0.10;99.90
42479;DHT22;28110;47.080;9.476;2022-12-11T10:46:22;-0.10;99.90
42479;DHT22;28110;47.080;9.476;2022-12-11T10:49:00;-0.20;99.90
42479;DHT22;28110;47.080;9.476;2022-12-11T10:53:59;-0.10;99.90
42479;DHT22;28110;47.080;9.476;2022-12-11T10:56:30;-0.10;99.90
42479;DHT22;28110;47.080;9.476;2022-12-11T10:58:57;-0.10;99.90
42479;DHT22;28110;47.080;9.476;2022-12-11T11:01:28;-0.20;99.90
42479;DHT22;28110;47.080;9.476;2022-12-11T11:04:06;-0.10;99.90
42479;DHT22;28110;47.080;9.476;2022-12-11T11:06:38;0.00;99.90
42479;DHT22;28110;47.080;9.476;2022-12-11T11:09:03;0.00;99.90
42479;DHT22;28110;47.080;9.476;2022-12-11T11:11:34;0.00;99.90
42479;DHT22;28110;47.080;9.476;2022-12-11T11:14:18;0.00;99.90
42479;DHT22;28110;47.080;9.476;2022-12-11T11:16:46;0.00;99.90
42479;DHT22;28110;47.080;9.476;2022-12-11T11:19:32;0.00;99.90
42479;DHT22;28110;47.080;9.476;2022-12-11T11:22:07;0.00;99.90
42479;DHT22;28110;47.080;9.476;2022-12-11T11:24:42;0.00;99.90
42479;DHT22;28110;47.080;9.476;2022-12-11T11:27:35;0.10;99.90
42479;DHT22;28110;47.080;9.476;2022-12-11T11:30:04;0.00;99.90
42479;DHT22;28110;47.080;9.476;2022-12-11T11:32:37;0.10;99.90
42479;DHT22;28110;47.080;9.476;2022-12-11T11:37:39;0.30;99.90
42479;DHT22;28110;47.080;9.476;2022-12-11T11:40:27;0.30;99.90
42479;DHT22;28110;47.080;9.476;2022-12-11T11:46:05;0.20;99.90
42479;DHT22;28110;47.080;9.476;2022-12-11T11:48:48;0.30;99.90
42479;DHT22;28110;47.080;9.476;2022-12-11T11:51:33;0.40;99.90
42479;DHT22;28110;47.080;9.476;2022-12-11T11:54:06;0.30;99.90
42479;DHT22;28110;47.080;9.476;2022-12-11T11:56:36;0.40;99.90
42479;DHT22;28110;47.080;9.476;2022-12-11T11:59:22;0.30;99.90
42479;DHT22;28110;47.080;9.476;2022-12-11T12:01:51;0.30;99.90
42479;DHT22;28110;47.080;9.476;2022-12-11T12:04:18;0.30;99.90
42479;DHT22;28110;47.080;9.476;2022-12-11T12:06:55;0.30;99.90
42479;DHT22;28110;47.080;9.476;2022-12-11T12:09:57;0.30;99.90
42479;DHT22;28110;47.080;9.476;2022-12-11T12:12:34;0.40;99.90
42479;DHT22;28110;47.080;9.476;2022-12-11T12:15:17;0.40;99.90
42479;DHT22;28110;47.080;9.476;2022-12-11T12:17:52;0.50;99.90
42479;DHT22;28110;47.080;9.476;2022-12-11T12:26:01;0.70;99.90
42479;DHT22;28110;47.080;9.476;2022-12-11T12:36:56;0.70;99.90
42479;DHT22;28110;47.080;9.476;2022-12-11T12:39:38;0.80;99.90
42479;DHT22;28110;47.080;9.476;2022-12-11T12:42:21;0.70;99.90
42479;DHT22;28110;47.080;9.476;2022-12-11T12:47:32;0.60;99.90
42479;DHT22;28110;47.080;9.476;2022-12-11T12:50:00;0.60;99.90
42479;DHT22;28110;47.080;9.476;2022-12-11T12:52:32;0.60;99.90
42479;DHT22;28110;47.080;9.476;2022-12-11T12:55:03;0.60;99.90
42479;DHT22;28110;47.080;9.476;2022-12-11T12:57:43;0.60;99.90
42479;DHT22;28110;47.080;9.476;2022-12-11T13:00:09;0.60;99.90
42479;DHT22;28110;47.080;9.476;2022-12-11T13:02:37;0.70;99.90
42479;DHT22;28110;47.080;9.476;2022-12-11T13:05:27;0.60;99.90
42479;DHT22;28110;47.080;9.476;2022-12-11T13:08:04;0.60;99.90
42479;DHT22;28110;47.080;9.476;2022-12-11T13:10:35;0.60;99.90
42479;DHT22;28110;47.080;9.476;2022-12-11T13:13:02;0.70;99.90
42479;DHT22;28110;47.080;9.476;2022-12-11T13:15:39;0.60;99.90
42479;DHT22;28110;47.080;9.476;2022-12-11T13:18:29;0.70;99.90
42479;DHT22;28110;47.080;9.476;2022-12-11T13:20:55;0.60;99.90
42479;DHT22;28110;47.080;9.476;2022-12-11T13:23:32;0.60;99.90
42479;DHT22;28110;47.080;9.476;2022-12-11T13:26:00;0.60;99.90
42479;DHT22;28110;47.080;9.476;2022-12-11T13:28:32;0.60;99.90
42479;DHT22;28110;47.080;9.476;2022-12-11T13:33:47;0.60;99.90
42479;DHT22;28110;47.080;9.476;2022-12-11T13:38:45;0.60;99.90
42479;DHT22;28110;47.080;9.476;2022-12-11T13:41:12;0.60;99.90
42479;DHT22;28110;47.080;9.476;2022-12-11T13:43:40;0.50;99.90
42479;DHT22;28110;47.080;9.476;2022-12-11T13:46:09;0.50;99.90
42479;DHT22;28110;47.080;9.476;2022-12-11T13:48:53;0.30;99.90
42479;DHT22;28110;47.080;9.476;2022-12-11T13:51:23;0.30;99.90
42479;DHT22;28110;47.080;9.476;2022-12-11T13:54:05;0.20;99.90
42479;DHT22;28110;47.080;9.476;2022-12-11T13:56:31;0.20;99.90
42479;DHT22;28110;47.080;9.476;2022-12-11T13:58:57;0.20;99.90
42479;DHT22;28110;47.080;9.476;2022-12-11T14:01:31;0.10;99.90
42479;DHT22;28110;47.080;9.476;2022-12-11T14:06:27;0.10;99.90
42479;DHT22;28110;47.080;9.476;2022-12-11T14:08:56;0.10;99.90
42479;DHT22;28110;47.080;9.476;2022-12-11T14:11:30;0.10;99.90
42479;DHT22;28110;47.080;9.476;2022-12-11T14:13:59;0.00;99.90
42479;DHT22;28110;47.080;9.476;2022-12-11T14:16:26;-0.10;99.90
42479;DHT22;28110;47.080;9.476;2022-12-11T14:18:54;-0.10;99.90
42479;DHT22;28110;47.080;9.476;2022-12-11T14:21:24;-0.20;99.90
42479;DHT22;28110;47.080;9.476;2022-12-11T14:23:52;-0.10;99.90
42479;DHT22;28110;47.080;9.476;2022-12-11T14:26:24;-0.20;99.90
42479;DHT22;28110;47.080;9.476;2022-12-11T14:28:50;-0.20;99.90
42479;DHT22;28110;47.080;9.476;2022-12-11T14:31:28;-0.20;99.90
42479;DHT22;28110;47.080;9.476;2022-12-11T14:34:01;-0.30;99.90
42479;DHT22;28110;47.080;9.476;2022-12-11T14:36:28;-0.30;99.90
42479;DHT22;28110;47.080;9.476;2022-12-11T14:39:06;-0.30;99.90
42479;DHT22;28110;47.080;9.476;2022-12-11T14:44:12;-0.40;99.90
42479;DHT22;28110;47.080;9.476;2022-12-11T14:51:47;-0.40;99.90
42479;DHT22;28110;47.080;9.476;2022-12-11T14:54:21;-0.40;99.90
42479;DHT22;28110;47.080;9.476;2022-12-11T14:56:48;-0.40;99.90
42479;DHT22;28110;47.080;9.476;2022-12-11T14:59:20;-0.40;99.90
42479;DHT22;28110;47.080;9.476;2022-12-11T15:02:00;-0.40;99.90
42479;DHT22;28110;47.080;9.476;2022-12-11T15:04:29;-0.40;99.90
42479;DHT22;28110;47.080;9.476;2022-12-11T15:06:56;-0.40;99.90
42479;DHT22;28110;47.080;9.476;2022-12-11T15:09:36;-0.40;99.90
42479;DHT22;28110;47.080;9.476;2022-12-11T15:12:16;-0.30;99.90
42479;DHT22;28110;47.080;9.476;2022-12-11T15:14:54;-0.30;99.90
42479;DHT22;28110;47.080;9.476;2022-12-11T15:17:23;-0.30;99.90
42479;DHT22;28110;47.080;9.476;2022-12-11T15:19:52;-0.30;99.90
42479;DHT22;28110;47.080;9.476;2022-12-11T15:22:20;-0.30;99.90
42479;DHT22;28110;47.080;9.476;2022-12-11T15:24:52;-0.20;99.90
42479;DHT22;28110;47.080;9.476;2022-12-11T15:27:27;-0.30;99.90
42479;DHT22;28110;47.080;9.476;2022-12-11T15:29:54;-0.10;99.90
42479;DHT22;28110;47.080;9.476;2022-12-11T15:32:20;-0.10;99.90
42479;DHT22;28110;47.080;9.476;2022-12-11T15:34:57;-0.10;99.90
42479;DHT22;28110;47.080;9.476;2022-12-11T15:37:26;-0.10;99.90
42479;DHT22;28110;47.080;9.476;2022-12-11T15:39:53;-0.10;99.90
42479;DHT22;28110;47.080;9.476;2022-12-11T15:42:36;-0.20;99.90
42479;DHT22;28110;47.080;9.476;2022-12-11T15:45:14;-0.20;99.90
42479;DHT22;28110;47.080;9.476;2022-12-11T15:47:41;-0.30;99.90
42479;DHT22;28110;47.080;9.476;2022-12-11T15:50:15;-0.40;99.90
42479;DHT22;28110;47.080;9.476;2022-12-11T15:52:41;-0.40;99.90
42479;DHT22;28110;47.080;9.476;2022-12-11T15:55:07;-0.50;99.90
42479;DHT22;28110;47.080;9.476;2022-12-11T15:57:33;-0.50;99.90
42479;DHT22;28110;47.080;9.476;2022-12-11T15:59:58;-0.50;99.90
42479;DHT22;28110;47.080;9.476;2022-12-11T16:02:25;-0.50;99.90
42479;DHT22;28110;47.080;9.476;2022-12-11T16:04:52;-0.50;99.90
42479;DHT22;28110;47.080;9.476;2022-12-11T16:07:21;-0.50;99.90
42479;DHT22;28110;47.080;9.476;2022-12-11T16:09:48;-0.50;99.90
42479;DHT22;28110;47.080;9.476;2022-12-11T16:12:14;-0.70;99.90
42479;DHT22;28110;47.080;9.476;2022-12-11T16:14:44;-0.70;99.90
42479;DHT22;28110;47.080;9.476;2022-12-11T16:17:12;-0.80;99.90
42479;DHT22;28110;47.080;9.476;2022-12-11T16:19:39;-0.90;99.90
42479;DHT22;28110;47.080;9.476;2022-12-11T16:22:06;-0.90;99.90
42479;DHT22;28110;47.080;9.476;2022-12-11T16:24:33;-1.00;99.90
42479;DHT22;28110;47.080;9.476;2022-12-11T16:26:59;-1.10;99.90
42479;DHT22;28110;47.080;9.476;2022-12-11T16:29:25;-1.10;99.90
42479;DHT22;28110;47.080;9.476;2022-12-11T16:31:50;-1.20;99.90
42479;DHT22;28110;47.080;9.476;2022-12-11T16:34:16;-1.20;99.90
42479;DHT22;28110;47.080;9.476;2022-12-11T16:36:42;-1.20;99.90
42479;DHT22;28110;47.080;9.476;2022-12-11T16:39:10;-1.30;99.90
42479;DHT22;28110;47.080;9.476;2022-12-11T16:41:36;-1.30;99.90
42479;DHT22;28110;47.080;9.476;2022-12-11T16:44:02;-1.30;99.90
42479;DHT22;28110;47.080;9.476;2022-12-11T16:46:28;-1.40;99.90
42479;DHT22;28110;47.080;9.476;2022-12-11T16:48:53;-1.40;99.90
42479;DHT22;28110;47.080;9.476;2022-12-11T16:51:19;-1.50;99.90
42479;DHT22;28110;47.080;9.476;2022-12-11T16:53:44;-1.60;99.90
42479;DHT22;28110;47.080;9.476;2022-12-11T16:56:10;-1.60;99.90
42479;DHT22;28110;47.080;9.476;2022-12-11T16:58:36;-1.70;99.90
42479;DHT22;28110;47.080;9.476;2022-12-11T17:01:10;-1.70;99.90
42479;DHT22;28110;47.080;9.476;2022-12-11T17:03:41;-1.70;99.90
42479;DHT22;28110;47.080;9.476;2022-12-11T17:06:13;-1.70;99.90
42479;DHT22;28110;47.080;9.476;2022-12-11T17:08:40;-1.70;99.90
42479;DHT22;28110;47.080;9.476;2022-12-11T17:11:09;-1.70;99.90
42479;DHT22;28110;47.080;9.476;2022-12-11T17:13:36;-1.80;99.90
42479;DHT22;28110;47.080;9.476;2022-12-11T17:16:10;-1.80;99.90